Time;durP1;ratioP1;P1;durP2;ratioP2;P2;SDS_P1;SDS_P2;PMS_P1;PMS_P2;Temp;Humidity;BMP_temperature;BMP_pressure;BME280_temperature;BME280_humidity;BME280_pressure;Samples;Min_cycle;Max_cycle;Signal;HPM_P1;HPM_P2
2023/01/04 00:00:09;;;;;;;18.87;15.60;;;;;;;10.00;100.00;102515.31;2105010;28;20174;-65
2023/01/04 00:01:13;;;;;;;19.07;15.30;;;;;;;9.68;100.00;102478.25;2103689;28;20184;-64
2023/01/04 00:02:13;;;;;;;16.40;14.60;;;;;;;10.16;100.00;102518.63;2104720;28;20810;-64
2023/01/04 00:03:14;;;;;;;19.33;15.77;;;;;;;9.56;100.00;102414.84;2105142;28;20471;-65
2023/01/04 00:04:15;;;;;;;17.97;15.50;;;;;;;10.15;100.00;102519.81;2105186;28;20190;-64
2023/01/04 00:05:16;;;;;;;21.30;16.40;;;;;;;9.10;100.00;102359.09;2104867;28;20444;-64
2023/01/04 00:06:17;;;;;;;18.60;15.43;;;;;;;10.12;100.00;102517.81;2106504;28;20190;-64
2023/01/04 00:07:17;;;;;;;18.60;15.60;;;;;;;10.12;100.00;102509.50;2104917;28;20613;-65
2023/01/04 00:08:18;;;;;;;18.27;14.90;;;;;;;10.13;100.00;102508.31;2105999;28;20507;-64
2023/01/04 00:09:19;;;;;;;15.97;14.10;;;;;;;10.17;100.00;102517.47;2113510;28;20234;-64
2023/01/04 00:10:19;;;;;;;16.60;14.80;;;;;;;10.15;100.00;102517.84;2105615;28;20186;-64
2023/01/04 00:11:21;;;;;;;17.37;15.47;;;;;;;10.11;100.00;102511.50;2112403;28;20192;-64
2023/01/04 00:12:22;;;;;;;18.53;16.00;;;;;;;10.18;100.00;102519.03;2103258;28;20221;-64
2023/01/04 00:13:23;;;;;;;17.77;15.77;;;;;;;10.20;100.00;102517.47;2104190;28;20451;-64
2023/01/04 00:14:23;;;;;;;17.57;15.70;;;;;;;10.16;100.00;102515.88;2109123;28;20451;-64
2023/01/04 00:15:23;;;;;;;20.93;17.10;;;;;;;10.15;100.00;102515.06;2105199;28;25053;-64
2023/01/04 00:16:26;;;;;;;20.03;16.30;;;;;;;10.08;100.00;102523.34;2105125;28;20209;-64
2023/01/04 00:17:26;;;;;;;19.93;16.53;;;;;;;9.94;100.00;102492.69;2104980;28;20598;-64
2023/01/04 00:18:29;;;;;;;17.73;15.83;;;;;;;10.08;100.00;102523.34;2105130;28;20451;-64
2023/01/04 00:19:29;;;;;;;17.57;15.77;;;;;;;10.11;100.00;102522.56;2104694;28;20693;-64
2023/01/04 00:20:30;;;;;;;19.03;16.47;;;;;;;10.14;100.00;102530.09;2105186;28;20475;-64
2023/01/04 00:21:30;;;;;;;21.60;16.63;;;;;;;10.14;100.00;102527.34;2109922;28;20198;-64
2023/01/04 00:22:34;;;;;;;19.53;16.37;;;;;;;10.08;100.00;102539.16;2108448;28;20187;-64
2023/01/04 00:23:34;;;;;;;21.10;16.50;;;;;;;10.04;100.00;102543.88;2105233;28;20202;-64
2023/01/04 00:24:35;;;;;;;20.07;16.93;;;;;;;9.99;100.00;102519.28;2106171;28;20929;-64
2023/01/04 00:25:54;;;;;;;17.43;15.63;;;;;;;10.03;100.00;102540.28;2113174;28;20179;-64
2023/01/04 00:26:54;;;;;;;20.13;16.37;;;;;;;9.71;100.00;102500.44;2110675;28;20249;-64
2023/01/04 00:27:55;;;;;;;18.00;15.97;;;;;;;9.98;100.00;102540.63;2104478;28;20455;-64
2023/01/04 00:28:57;;;;;;;18.47;16.20;;;;;;;9.97;100.00;102547.34;2104797;28;20658;-64
2023/01/04 00:29:57;;;;;;;20.93;16.93;;;;;;;9.96;100.00;102553.25;2105473;28;20190;-64
2023/01/04 00:31:02;;;;;;;18.60;16.50;;;;;;;9.95;100.00;102560.75;2105124;28;20490;-64
2023/01/04 00:32:03;;;;;;;20.23;17.00;;;;;;;9.92;100.00;102538.56;2102879;28;20194;-64
2023/01/04 00:33:03;;;;;;;19.20;16.77;;;;;;;9.91;100.00;102559.16;2104069;28;20936;-64
2023/01/04 00:34:05;;;;;;;20.00;17.63;;;;;;;9.98;100.00;102553.66;2108685;28;20688;-64
2023/01/04 00:35:05;;;;;;;20.57;17.20;;;;;;;10.02;100.00;102552.53;2108937;28;20275;-64
2023/01/04 00:36:12;;;;;;;18.73;16.73;;;;;;;9.98;100.00;102551.69;2110514;28;21100;-64
2023/01/04 00:37:12;;;;;;;18.23;16.33;;;;;;;9.90;100.00;102552.81;2098301;28;20187;-64
2023/01/04 00:38:12;;;;;;;20.27;17.33;;;;;;;9.94;100.00;102556.41;2102877;28;20497;-65
2023/01/04 00:39:15;;;;;;;19.93;16.70;;;;;;;9.76;100.00;102525.00;2105440;28;20174;-64
2023/01/04 00:40:15;;;;;;;19.07;17.03;;;;;;;9.96;100.00;102559.59;2105282;28;20228;-64
2023/01/04 00:41:16;;;;;;;20.40;17.17;;;;;;;9.92;100.00;102557.97;2104892;28;20452;-64
2023/01/04 00:42:16;;;;;;;20.73;17.10;;;;;;;9.95;100.00;102560.75;2104861;28;20267;-64
2023/01/04 00:43:17;;;;;;;21.33;18.03;;;;;;;9.98;100.00;102567.50;2104854;28;20246;-64
2023/01/04 00:44:20;;;;;;;20.93;17.50;;;;;;;9.92;100.00;102561.53;2104710;28;20197;-64
2023/01/04 00:45:20;;;;;;;19.27;17.27;;;;;;;9.86;100.00;102570.56;2104732;28;20201;-64
2023/01/04 00:46:21;;;;;;;20.03;16.70;;;;;;;9.91;100.00;102565.50;2104517;28;20419;-64
2023/01/04 00:47:21;;;;;;;22.00;17.47;;;;;;;9.91;100.00;102573.00;2104665;28;20231;-64
2023/01/04 00:48:23;;;;;;;22.20;17.57;;;;;;;9.88;100.00;102582.88;2105055;28;20185;-64
2023/01/04 00:49:24;;;;;;;19.30;17.20;;;;;;;9.88;100.00;102573.75;2109598;28;20197;-64
2023/01/04 00:50:24;;;;;;;20.77;17.23;;;;;;;9.88;100.00;102574.56;2107558;28;20487;-64
2023/01/04 00:51:25;;;;;;;21.87;16.93;;;;;;;9.50;100.00;102504.94;2106084;28;20551;-64
2023/01/04 00:52:26;;;;;;;19.47;16.83;;;;;;;9.90;100.00;102571.41;2110790;28;20196;-64
2023/01/04 00:53:26;;;;;;;19.73;16.60;;;;;;;9.18;100.00;102462.31;2111467;28;20196;-64
2023/01/04 00:54:27;;;;;;;18.77;16.73;;;;;;;9.76;100.00;102555.44;2106620;28;20204;-64
2023/01/04 00:55:29;;;;;;;19.27;17.20;;;;;;;9.93;100.00;102567.84;2106421;28;20179;-64
2023/01/04 00:56:30;;;;;;;18.90;16.70;;;;;;;9.91;100.00;102573.81;2106433;28;20288;-64
2023/01/04 00:57:31;;;;;;;21.17;17.40;;;;;;;9.60;100.00;102524.44;2106838;28;20978;-64
2023/01/04 00:58:31;;;;;;;21.17;17.40;;;;;;;9.97;100.00;102574.22;2106350;28;20819;-64
2023/01/04 00:59:32;;;;;;;20.70;17.23;;;;;;;9.94;100.00;102575.78;2106525;28;20276;-64
2023/01/04 01:00:33;;;;;;;20.20;17.43;;;;;;;9.87;100.00;102580.47;2106619;28;20292;-64
2023/01/04 01:01:34;;;;;;;19.20;17.00;;;;;;;9.84;100.00;102582.03;2106144;28;20204;-64
2023/01/04 01:02:34;;;;;;;21.10;17.57;;;;;;;9.82;100.00;102575.28;2105737;28;20436;-64
2023/01/04 01:03:35;;;;;;;19.10;17.07;;;;;;;9.79;100.00;102581.59;2106335;28;20652;-64
2023/01/04 01:04:35;;;;;;;19.87;17.47;;;;;;;9.71;100.00;102568.84;2106307;28;20161;-64
2023/01/04 01:05:36;;;;;;;21.97;17.27;;;;;;;9.17;100.00;102475.34;2107002;28;20296;-64
2023/01/04 01:06:37;;;;;;;19.23;16.83;;;;;;;9.16;100.00;102475.72;2121558;27;20184;-64
2023/01/04 01:07:38;;;;;;;19.47;17.37;;;;;;;9.83;100.00;102574.09;2115914;27;20447;-64
2023/01/04 01:08:38;;;;;;;26.27;17.37;;;;;;;9.94;100.00;102580.56;2109006;28;20196;-64
2023/01/04 01:09:39;;;;;;;20.43;16.67;;;;;;;9.99;100.00;102585.75;2108835;27;20718;-64
2023/01/04 01:10:39;;;;;;;18.77;16.63;;;;;;;9.87;100.00;102570.19;2117032;27;20189;-64
2023/01/04 01:11:40;;;;;;;19.70;17.13;;;;;;;9.96;100.00;102586.50;2106145;28;20195;-64
2023/01/04 01:12:40;;;;;;;19.23;16.53;;;;;;;9.96;100.00;102595.63;2105870;28;20174;-64
2023/01/04 01:13:41;;;;;;;20.53;16.83;;;;;;;9.93;100.00;102588.06;2106680;28;20985;-64
2023/01/04 01:14:41;;;;;;;19.73;16.80;;;;;;;9.88;100.00;102588.41;2106500;28;20209;-64
2023/01/04 01:15:42;;;;;;;18.90;16.90;;;;;;;9.88;100.00;102593.94;2106382;28;20201;-64
2023/01/04 01:17:01;;;;;;;21.27;17.87;;;;;;;9.82;100.00;102583.56;2106241;28;20193;-64
2023/01/04 01:18:02;;;;;;;20.97;17.73;;;;;;;9.85;100.00;102583.59;2106032;28;20671;-64
2023/01/04 01:19:02;;;;;;;20.23;18.13;;;;;;;9.80;100.00;102583.97;2106205;28;20882;-64
2023/01/04 01:20:04;;;;;;;20.93;17.27;;;;;;;9.81;100.00;102593.88;2106250;28;20247;-64
2023/01/04 01:21:10;;;;;;;19.60;17.50;;;;;;;9.84;100.00;102611.72;2106137;28;20217;-64
2023/01/04 01:22:11;;;;;;;20.97;18.13;;;;;;;9.81;100.00;102590.31;2106357;28;20476;-64
2023/01/04 01:23:14;;;;;;;20.83;17.80;;;;;;;9.80;100.00;102591.47;2105813;28;20450;-64
2023/01/04 01:24:17;;;;;;;18.83;16.83;;;;;;;9.70;100.00;102587.44;2106325;28;20185;-64
2023/01/04 01:25:17;;;;;;;20.87;17.27;;;;;;;9.65;100.00;102593.31;2112836;28;20975;-64
2023/01/04 01:26:20;;;;;;;20.80;17.10;;;;;;;9.65;100.00;102598.84;2106724;28;20796;-64
2023/01/04 01:27:21;;;;;;;19.33;17.23;;;;;;;9.67;100.00;102596.50;2106451;28;20660;-64
2023/01/04 01:28:21;;;;;;;19.27;17.17;;;;;;;9.65;100.00;102593.31;2106031;28;20893;-64
2023/01/04 01:29:22;;;;;;;21.30;17.73;;;;;;;9.37;100.00;102542.38;2106369;28;20185;-64
2023/01/04 01:30:23;;;;;;;22.87;17.90;;;;;;;9.69;100.00;102593.34;2106203;28;20196;-64
2023/01/04 01:31:26;;;;;;;20.23;17.07;;;;;;;9.64;100.00;102597.22;2106319;28;20184;-64
2023/01/04 01:32:26;;;;;;;23.27;18.10;;;;;;;9.64;100.00;102593.69;2105555;28;20173;-64
2023/01/04 01:33:27;;;;;;;20.63;17.27;;;;;;;9.62;100.00;102590.47;2106396;28;20410;-64
2023/01/04 01:34:27;;;;;;;23.47;18.00;;;;;;;9.60;100.00;102599.19;2106175;28;20620;-64
2023/01/04 01:35:28;;;;;;;21.10;17.17;;;;;;;9.56;100.00;102590.03;2115064;28;20176;-64
2023/01/04 01:36:28;;;;;;;22.33;17.80;;;;;;;9.65;100.00;102592.50;2107238;28;20263;-64
2023/01/04 01:37:28;;;;;;;19.23;17.13;;;;;;;9.65;100.00;102590.53;2106013;28;20198;-64
2023/01/04 01:38:29;;;;;;;19.13;16.83;;;;;;;9.67;100.00;102582.66;2111142;28;20187;-64
2023/01/04 01:39:30;;;;;;;22.13;17.80;;;;;;;9.68;100.00;102589.78;2110393;28;20210;-64
2023/01/04 01:40:31;;;;;;;20.97;17.30;;;;;;;9.67;100.00;102598.44;2106327;28;20570;-66
2023/01/04 01:41:33;;;;;;;19.80;17.07;;;;;;;9.65;100.00;102585.00;2107641;28;20184;-65
2023/01/04 01:42:33;;;;;;;19.63;17.03;;;;;;;9.69;100.00;102583.03;2113624;28;20205;-64
2023/01/04 01:43:53;;;;;;;19.00;16.67;;;;;;;9.21;100.00;102500.28;2106555;28;20510;-64
2023/01/04 01:44:59;;;;;;;21.37;17.03;;;;;;;9.80;100.00;102583.19;2107003;27;20205;-65
2023/01/04 01:45:59;;;;;;;18.67;16.33;;;;;;;9.87;100.00;102583.25;2113884;28;20387;-64
2023/01/04 01:47:00;;;;;;;21.27;17.53;;;;;;;9.93;100.00;102571.44;2106782;28;20427;-64
2023/01/04 01:48:06;;;;;;;21.40;17.03;;;;;;;9.94;100.00;102597.94;2105987;28;20704;-64
2023/01/04 01:49:22;;;;;;;20.37;16.43;;;;;;;9.98;100.00;102584.13;2112664;28;20459;-64
2023/01/04 01:50:28;;;;;;;21.30;17.07;;;;;;;9.93;100.00;102578.94;2106071;28;20479;-64
2023/01/04 01:51:30;;;;;;;20.77;17.10;;;;;;;9.94;100.00;102578.56;2106088;28;20448;-65
2023/01/04 01:52:36;;;;;;;18.37;16.33;;;;;;;9.97;100.00;102579.78;2105681;28;20454;-64
2023/01/04 01:53:42;;;;;;;20.50;16.90;;;;;;;9.97;100.00;102572.28;2106034;28;20448;-64
2023/01/04 01:55:01;;;;;;;22.93;16.70;;;;;;;9.99;100.00;102563.59;2106187;28;20549;-65
2023/01/04 01:56:05;;;;;;;19.10;16.43;;;;;;;8.91;100.00;102400.78;2106182;28;20963;-64
2023/01/04 01:57:09;;;;;;;18.27;16.10;;;;;;;10.05;100.00;102568.41;2106130;28;20433;-64
2023/01/04 01:58:16;;;;;;;19.67;16.80;;;;;;;10.05;100.00;102562.88;2105696;28;20460;-64
2023/01/04 01:59:19;;;;;;;18.87;15.83;;;;;;;9.62;100.00;102485.28;2106013;28;20437;-64
2023/01/04 02:00:20;;;;;;;18.17;15.93;;;;;;;9.94;100.00;102545.31;2105880;28;20539;-64
2023/01/04 02:01:21;;;;;;;20.47;16.40;;;;;;;10.00;100.00;102541.03;2105550;28;20451;-65
2023/01/04 02:02:21;;;;;;;19.50;16.17;;;;;;;10.14;100.00;102568.88;2105353;28;20663;-65
2023/01/04 02:03:28;;;;;;;18.07;15.00;;;;;;;10.17;100.00;102565.38;2105812;28;20175;-64
2023/01/04 02:04:29;;;;;;;18.90;16.17;;;;;;;9.18;100.00;102399.47;2096935;28;20175;-64
2023/01/04 02:05:31;;;;;;;21.93;15.93;;;;;;;10.23;100.00;102565.78;2096721;28;20437;-65
2023/01/04 02:06:38;;;;;;;18.00;16.03;;;;;;;10.17;100.00;102545.97;2109420;28;20981;-64
2023/01/04 02:07:38;;;;;;;20.93;16.20;;;;;;;9.69;100.00;102461.22;2106060;28;20956;-64
2023/01/04 02:08:41;;;;;;;18.50;15.93;;;;;;;10.24;100.00;102548.78;2105512;28;20900;-64
2023/01/04 02:09:43;;;;;;;18.53;15.80;;;;;;;10.16;100.00;102538.03;2106088;28;20451;-64
2023/01/04 02:10:44;;;;;;;18.70;15.53;;;;;;;10.33;100.00;102554.81;2106152;28;20446;-64
2023/01/04 02:11:45;;;;;;;18.60;16.20;;;;;;;10.29;100.00;102540.13;2105703;28;20429;-64
2023/01/04 02:12:46;;;;;;;19.80;15.73;;;;;;;10.25;100.00;102535.75;2105282;28;20231;-64
2023/01/04 02:15:06;;;;;;;17.80;15.90;;;;;;;10.28;100.00;102548.81;2106015;28;20433;-65
2023/01/04 02:16:20;;;;;;;19.63;16.87;;;;;;;10.25;100.00;102549.59;2105838;28;20790;-64
2023/01/04 02:17:26;;;;;;;21.20;16.90;;;;;;;10.28;100.00;102551.59;2105982;28;20549;-64
2023/01/04 02:18:35;;;;;;;20.37;17.43;;;;;;;10.28;100.00;102549.63;2105445;28;20403;-64
2023/01/04 02:19:54;;;;;;;19.03;16.47;;;;;;;10.31;100.00;102551.59;2105986;28;20396;-64
2023/01/04 02:21:28;;;;;;;20.63;16.83;;;;;;;10.38;100.00;102559.19;2105739;28;20528;-64
2023/01/04 02:22:40;;;;;;;20.07;16.07;;;;;;;10.39;100.00;102561.59;2112572;28;20448;-64
2023/01/04 02:24:26;;;;;;;18.90;16.37;;;;;;;9.58;100.00;102427.13;2106239;28;20463;-64
2023/01/04 02:25:35;;;;;;;19.87;16.37;;;;;;;10.34;100.00;102559.16;2105044;28;20445;-64
2023/01/04 02:26:42;;;;;;;19.13;15.77;;;;;;;10.37;100.00;102550.09;2105925;28;20436;-64
2023/01/04 02:28:01;;;;;;;18.33;16.17;;;;;;;10.40;100.00;102562.38;2105456;28;20479;-64
2023/01/04 02:29:45;;;;;;;20.87;17.00;;;;;;;10.41;100.00;102550.13;2105905;28;20429;-64
2023/01/04 02:31:25;;;;;;;20.77;17.10;;;;;;;10.33;100.00;102548.44;2106231;28;20554;-64
2023/01/04 02:32:44;;;;;;;20.33;16.57;;;;;;;10.50;100.00;102556.91;2105030;28;20444;-64
2023/01/04 02:34:06;;;;;;;19.33;16.27;;;;;;;10.31;100.00;102531.44;2105955;28;20431;-64
2023/01/04 02:35:32;;;;;;;20.37;16.87;;;;;;;10.53;100.00;102563.66;2105737;28;20444;-64
2023/01/04 02:36:56;;;;;;;19.03;16.70;;;;;;;10.53;100.00;102558.91;2096569;28;20420;-64
2023/01/04 02:38:02;;;;;;;19.77;15.67;;;;;;;10.59;100.00;102564.88;2104904;28;20891;-64
2023/01/04 02:39:47;;;;;;;19.30;16.50;;;;;;;10.67;100.00;102563.75;2105505;28;20482;-64
2023/01/04 02:40:53;;;;;;;20.37;15.57;;;;;;;10.68;100.00;102557.03;2098546;28;20602;-64
2023/01/04 02:42:01;;;;;;;18.27;15.17;;;;;;;10.65;100.00;102564.13;2105506;28;21061;-64
2023/01/04 02:45:53;;;;;;;19.10;15.37;;;;;;;10.67;100.00;102561.75;2105560;28;20439;-64
2023/01/04 02:47:11;;;;;;;19.73;15.53;;;;;;;10.67;100.00;102567.31;2096618;28;20446;-64
2023/01/04 02:50:57;;;;;;;17.73;15.33;;;;;;;10.76;100.00;102564.22;2109467;28;20554;-64
2023/01/04 02:51:58;;;;;;;19.37;14.80;;;;;;;10.76;100.00;102569.78;2110009;28;20961;-64
2023/01/04 02:53:13;;;;;;;19.00;15.73;;;;;;;10.81;100.00;102572.19;2105206;28;20475;-64
2023/01/04 02:54:19;;;;;;;18.80;15.47;;;;;;;10.83;100.00;102567.84;2105703;28;20217;-64
2023/01/04 02:55:20;;;;;;;17.93;14.57;;;;;;;10.88;100.00;102574.97;2105408;28;20446;-64
2023/01/04 02:56:37;;;;;;;17.63;14.77;;;;;;;10.88;100.00;102570.25;2105550;28;20447;-64
2023/01/04 02:57:55;;;;;;;18.17;14.43;;;;;;;10.97;100.00;102589.31;2108696;28;20198;-64
2023/01/04 02:59:03;;;;;;;16.83;15.03;;;;;;;10.84;100.00;102574.16;2109424;28;20472;-64
2023/01/04 03:00:33;;;;;;;16.07;14.17;;;;;;;10.82;100.00;102582.09;2105439;28;20450;-64
2023/01/04 03:06:49;;;;;;;18.07;14.90;;;;;;;10.60;100.00;102583.91;2115696;27;20399;-64
2023/01/04 03:08:10;;;;;;;19.90;15.10;;;;;;;10.56;100.00;102591.41;2105204;28;20937;-64
2023/01/04 03:09:22;;;;;;;19.10;15.13;;;;;;;9.77;100.00;102473.16;2105413;28;20436;-64
2023/01/04 03:10:40;;;;;;;18.03;15.13;;;;;;;10.41;100.00;102564.75;2105625;28;20417;-64
2023/01/04 03:13:22;;;;;;;17.37;14.77;;;;;;;10.48;100.00;102594.50;2104801;28;20431;-64
2023/01/04 03:14:28;;;;;;;18.00;15.47;;;;;;;10.45;100.00;102589.75;2105887;28;20418;-64
2023/01/04 03:15:33;;;;;;;22.50;15.47;;;;;;;10.44;100.00;102597.25;2105504;28;20455;-64
2023/01/04 03:16:35;;;;;;;19.63;14.80;;;;;;;10.42;100.00;102596.03;2105340;28;20436;-64
2023/01/04 03:17:45;;;;;;;19.00;15.03;;;;;;;10.33;100.00;102578.94;2105162;28;21017;-64
2023/01/04 03:18:51;;;;;;;17.87;15.27;;;;;;;10.40;100.00;102585.34;2104955;28;20446;-64
2023/01/04 03:19:55;;;;;;;19.40;14.93;;;;;;;10.15;100.00;102564.16;2105497;28;20526;-64
2023/01/04 03:21:00;;;;;;;18.93;15.23;;;;;;;10.37;100.00;102593.63;2105288;28;20547;-64
2023/01/04 03:22:02;;;;;;;18.83;15.90;;;;;;;10.21;100.00;102566.19;2105453;28;20529;-64
2023/01/04 03:35:58;;;;;;;17.17;13.13;;;;;;;9.50;100.00;102525.13;2104821;28;20436;-64
2023/01/04 03:37:18;;;;;;;18.08;13.98;;;;;;;9.97;100.00;102601.94;2105479;28;20426;-64
2023/01/04 03:48:31;;;;;;;14.45;12.27;;;;;;;9.66;100.00;102603.19;2105053;28;20167;-64
2023/01/04 03:49:48;;;;;;;15.70;12.50;;;;;;;9.62;100.00;102607.91;2106753;28;20247;-64
2023/01/04 03:50:57;;;;;;;18.23;13.00;;;;;;;9.59;100.00;102607.88;2104964;28;20227;-64
2023/01/04 03:52:01;;;;;;;17.90;13.53;;;;;;;9.56;100.00;102614.13;2105079;28;20665;-64
2023/01/04 03:53:01;;;;;;;17.83;12.93;;;;;;;9.52;100.00;102610.53;2104936;28;20432;-64
2023/01/04 03:54:10;;;;;;;14.80;12.13;;;;;;;9.44;100.00;102601.34;2105142;28;20203;-64
2023/01/04 03:55:12;;;;;;;15.37;12.47;;;;;;;9.37;100.00;102600.50;2105062;28;20184;-64
2023/01/04 03:56:15;;;;;;;15.93;12.97;;;;;;;9.37;100.00;102594.94;2105326;28;20417;-64
2023/01/04 03:57:17;;;;;;;15.57;12.00;;;;;;;9.48;100.00;102607.72;2104983;28;20418;-64
2023/01/04 03:58:19;;;;;;;15.53;12.27;;;;;;;9.54;100.00;102620.03;2104740;28;20426;-64
2023/01/04 03:59:22;;;;;;;14.82;11.98;;;;;;;8.88;100.00;102517.66;2105431;28;20422;-64
2023/01/04 04:00:22;;;;;;;16.17;11.93;;;;;;;9.45;100.00;102610.44;2105835;28;20189;-64
2023/01/04 04:01:25;;;;;;;15.60;12.20;;;;;;;8.85;100.00;102526.69;2107588;28;20526;-64
2023/01/04 04:02:29;;;;;;;14.67;11.90;;;;;;;9.47;100.00;102617.22;2104771;28;20661;-64
2023/01/04 04:08:47;;;;;;;15.93;11.57;;;;;;;9.42;100.00;102614.78;2104771;28;20157;-64
2023/01/04 04:09:47;;;;;;;16.27;12.13;;;;;;;9.43;100.00;102618.34;2105230;28;20456;-64
2023/01/04 04:10:48;;;;;;;14.30;11.00;;;;;;;9.37;100.00;102625.41;2105584;28;20173;-64
2023/01/04 04:11:48;;;;;;;15.47;11.40;;;;;;;9.26;100.00;102599.53;2104994;28;20577;-64
2023/01/04 04:12:49;;;;;;;15.70;12.00;;;;;;;9.22;100.00;102593.97;2104578;28;20193;-64
2023/01/04 04:13:50;;;;;;;15.37;11.30;;;;;;;9.35;100.00;102619.41;2105085;28;20273;-64
2023/01/04 04:14:50;;;;;;;17.07;11.50;;;;;;;9.39;100.00;102621.03;2099965;28;20726;-64
2023/01/04 04:15:53;;;;;;;15.27;11.50;;;;;;;9.43;100.00;102624.66;2104428;28;20193;-64
2023/01/04 04:16:54;;;;;;;15.30;12.27;;;;;;;9.31;100.00;102613.84;2104937;28;20167;-64
2023/01/04 04:17:54;;;;;;;13.17;10.93;;;;;;;9.34;100.00;102626.13;2104493;28;20458;-64
2023/01/04 04:18:55;;;;;;;16.13;11.10;;;;;;;8.80;100.00;102545.56;2105491;28;20174;-64
2023/01/04 04:19:55;;;;;;;16.27;11.47;;;;;;;9.35;100.00;102631.28;2104813;28;20326;-64
2023/01/04 04:20:56;;;;;;;13.53;11.07;;;;;;;9.34;100.00;102623.38;2105004;28;20186;-64
2023/01/04 04:21:57;;;;;;;14.37;10.67;;;;;;;9.31;100.00;102611.06;2104948;28;20250;-64
2023/01/04 04:22:57;;;;;;;17.13;11.60;;;;;;;9.23;100.00;102606.59;2104570;28;20448;-64
2023/01/04 04:23:58;;;;;;;13.40;10.87;;;;;;;9.38;100.00;102627.75;2105394;28;20186;-64
2023/01/04 04:24:58;;;;;;;15.70;11.33;;;;;;;9.37;100.00;102619.84;2109214;28;20174;-64
2023/01/04 04:25:59;;;;;;;14.30;11.60;;;;;;;9.35;100.00;102620.22;2106904;28;20171;-64
2023/01/04 04:26:59;;;;;;;16.27;11.23;;;;;;;9.36;100.00;102626.53;2107115;28;20239;-64
2023/01/04 04:28:00;;;;;;;14.43;11.10;;;;;;;9.38;100.00;102627.75;2106627;28;20199;-64
2023/01/04 04:29:00;;;;;;;15.70;10.63;;;;;;;9.38;100.00;102635.28;2106783;28;20193;-64
2023/01/04 04:30:01;;;;;;;14.10;11.00;;;;;;;9.42;100.00;102630.56;2097766;28;20190;-64
2023/01/04 04:31:02;;;;;;;14.27;11.60;;;;;;;8.98;100.00;102571.50;2102558;28;20647;-64
2023/01/04 04:32:02;;;;;;;13.77;11.10;;;;;;;9.46;100.00;102629.47;2106640;28;20803;-64
2023/01/04 04:33:03;;;;;;;13.17;10.43;;;;;;;9.48;100.00;102635.41;2106261;28;20174;-64
2023/01/04 04:34:03;;;;;;;14.07;10.87;;;;;;;9.37;100.00;102622.63;2106680;28;20635;-64
2023/01/04 04:35:04;;;;;;;14.33;11.43;;;;;;;9.44;100.00;102636.53;2106963;28;20163;-64
2023/01/04 04:36:05;;;;;;;13.90;11.27;;;;;;;9.49;100.00;102639.75;2097983;28;20210;-64
2023/01/04 04:37:06;;;;;;;13.90;10.97;;;;;;;9.47;100.00;102641.31;2097825;28;20204;-64
2023/01/04 04:38:07;;;;;;;15.13;10.63;;;;;;;9.21;100.00;102614.50;2103383;28;20452;-64
2023/01/04 04:39:07;;;;;;;16.13;10.73;;;;;;;9.37;100.00;102642.00;2101026;28;20802;-64
2023/01/04 04:41:37;;;;;;;15.63;11.80;;;;;;;9.34;100.00;102639.97;2106773;28;20562;-64
2023/01/04 04:41:37;;;;;;;14.90;11.07;;;;;;;9.33;100.00;102644.69;2106408;28;20651;-64
2023/01/04 04:42:38;;;;;;;13.83;11.07;;;;;;;9.15;100.00;102648.38;2106009;28;20534;-64
2023/01/04 04:43:38;;;;;;;14.17;10.70;;;;;;;9.04;100.00;102639.16;2106535;28;20454;-64
2023/01/04 04:44:39;;;;;;;18.30;12.13;;;;;;;9.02;100.00;102650.59;2106634;28;20578;-64
2023/01/04 04:45:39;;;;;;;15.53;11.57;;;;;;;9.02;100.00;102647.03;2106551;28;20247;-64
2023/01/04 04:46:40;;;;;;;14.10;10.70;;;;;;;9.04;100.00;102644.69;2106768;28;20568;-64
2023/01/04 04:47:41;;;;;;;14.13;12.02;;;;;;;9.02;100.00;102653.34;2106980;28;20184;-64
2023/01/04 04:48:41;;;;;;;15.07;11.53;;;;;;;9.00;100.00;102641.88;2106176;28;20195;-64
2023/01/04 04:49:41;;;;;;;13.23;11.33;;;;;;;9.05;100.00;102647.09;2107105;28;20349;-64
2023/01/04 04:50:42;;;;;;;16.40;12.07;;;;;;;9.09;100.00;102647.94;2106380;28;20628;-64
2023/01/04 04:51:45;;;;;;;16.50;11.37;;;;;;;9.11;100.00;102656.66;2106682;28;20192;-64
2023/01/04 04:52:45;;;;;;;15.43;12.07;;;;;;;9.17;100.00;102643.31;2106082;28;20283;-64
2023/01/04 04:53:45;;;;;;;14.23;11.80;;;;;;;9.17;100.00;102646.06;2106566;28;20416;-64
2023/01/04 04:54:46;;;;;;;14.17;11.50;;;;;;;9.17;100.00;102644.09;2106529;28;20170;-64
2023/01/04 04:55:49;;;;;;;14.67;11.70;;;;;;;9.19;100.00;102644.53;2106478;28;20536;-64
2023/01/04 04:56:50;;;;;;;14.97;11.93;;;;;;;9.12;100.00;102646.38;2097785;28;20184;-61
2023/01/04 04:57:50;;;;;;;14.83;12.20;;;;;;;8.71;100.00;102592.06;2102804;28;20438;-64
2023/01/04 04:58:51;;;;;;;15.00;12.07;;;;;;;8.27;100.00;102528.22;2107359;28;20194;-65
2023/01/04 04:59:51;;;;;;;14.57;11.70;;;;;;;9.11;100.00;102647.53;2109624;27;20592;-65
2023/01/04 05:00:52;;;;;;;16.07;12.43;;;;;;;9.15;100.00;102651.16;2110647;28;20228;-64
2023/01/04 05:01:52;;;;;;;15.70;12.07;;;;;;;9.19;100.00;102654.78;2107431;28;20235;-66
2023/01/04 05:02:53;;;;;;;17.93;12.67;;;;;;;9.11;100.00;102656.66;2116663;27;20197;-63
2023/01/04 05:03:53;;;;;;;17.20;12.80;;;;;;;9.09;100.00;102659.00;2115626;27;20647;-63
2023/01/04 05:04:53;;;;;;;16.40;13.33;;;;;;;9.14;100.00;102660.63;2119818;27;20184;-63
2023/01/04 05:05:54;;;;;;;15.20;12.03;;;;;;;9.11;100.00;102656.66;2114030;27;20191;-65
2023/01/04 05:06:54;;;;;;;15.87;12.57;;;;;;;9.05;100.00;102660.91;2115483;27;20225;-66
2023/01/04 05:07:55;;;;;;;16.00;12.83;;;;;;;9.07;100.00;102658.56;2112936;27;20190;-65
2023/01/04 05:08:55;;;;;;;19.00;13.93;;;;;;;9.09;100.00;102666.50;2113686;27;20569;-62
2023/01/04 05:09:55;;;;;;;16.93;13.23;;;;;;;8.94;100.00;102639.78;2112182;28;20261;-63
2023/01/04 05:10:56;;;;;;;16.73;13.57;;;;;;;9.10;100.00;102662.53;2114202;28;20200;-62
2023/01/04 05:13:16;;;;;;;17.57;13.60;;;;;;;9.06;100.00;102664.47;2112594;28;20253;-66
2023/01/04 05:14:16;;;;;;;16.90;13.40;;;;;;;8.38;100.00;102578.91;2114564;28;20431;-67
2023/01/04 05:15:16;;;;;;;16.93;13.03;;;;;;;9.09;100.00;102675.59;2113984;28;20513;-62
2023/01/04 05:16:17;;;;;;;16.20;12.90;;;;;;;9.14;100.00;102671.69;2113232;28;20299;-65
2023/01/04 05:17:17;;;;;;;15.77;13.33;;;;;;;9.20;100.00;102679.31;2117038;27;20189;-65
2023/01/04 05:18:19;;;;;;;14.43;12.13;;;;;;;9.23;100.00;102684.06;2116099;27;20214;-63
2023/01/04 05:19:20;;;;;;;16.33;13.20;;;;;;;9.24;100.00;102685.69;2118458;27;20192;-61
2023/01/04 05:20:20;;;;;;;18.57;13.83;;;;;;;9.16;100.00;102686.75;2112621;28;20419;-62
2023/01/04 05:21:21;;;;;;;16.17;12.53;;;;;;;9.15;100.00;102685.16;2112978;28;20178;-61
2023/01/04 05:22:21;;;;;;;16.47;13.07;;;;;;;9.13;100.00;102673.66;2113121;28;20208;-61
2023/01/04 05:23:22;;;;;;;18.13;13.17;;;;;;;8.71;100.00;102611.41;2113954;28;20181;-60
2023/01/04 05:24:22;;;;;;;16.77;13.27;;;;;;;9.15;100.00;102689.88;2112498;28;20643;-61
2023/01/04 05:25:23;;;;;;;16.57;13.70;;;;;;;9.14;100.00;102680.81;2112300;28;20200;-66
2023/01/04 05:26:24;;;;;;;16.30;13.50;;;;;;;9.17;100.00;102680.03;2113518;28;20186;-66
2023/01/04 05:27:24;;;;;;;16.57;13.43;;;;;;;9.16;100.00;102672.13;2114151;28;20189;-60
2023/01/04 05:28:25;;;;;;;15.30;12.87;;;;;;;8.74;100.00;102608.69;2103162;28;20753;-60
2023/01/04 05:30:50;;;;;;;15.67;12.90;;;;;;;9.33;100.00;102680.66;2111410;28;20886;-67
2023/01/04 05:31:51;;;;;;;16.97;13.37;;;;;;;7.82;100.00;102426.09;2115670;27;20414;-59
2023/01/04 05:32:51;;;;;;;16.63;13.07;;;;;;;9.44;100.00;102676.06;2113563;28;20434;-64
2023/01/04 05:33:52;;;;;;;16.73;13.10;;;;;;;9.46;100.00;102679.28;2113225;27;20197;-63